Wetterstation CH-4312 Magden
Wetterdaten: aktuell Dienstag, 18.09.2018 23:10
Datum Zeit Temp. I. Temp. A. Solkit WP Vorl Feuchte I. Feuchte A. Luftdruck Regen Wind Richtung Richtung Sonnenschein UV Solar Taupunkt Windchill Windben
18.09.2018 23:10 22.8 C 14.8 C 22.2 C 20.6 C 62 % 91 % 1018.3 hPa 0.0 mm 0.0 km/h O-SO 115 0 min 0.0 UV-I 0 W/m 13.3 C 14.8 C 0.0 km/h
18.09.2018 22:10 22.8 C 15.6 C 22.2 C 20.6 C 62 % 90 % 1018.0 hPa 0.0 mm 0.0 km/h O-SO 109 0 min 0.0 UV-I 0 W/m 14.0 C 15.6 C 0.0 km/h
18.09.2018 21:10 22.8 C 16.1 C 23.3 C 20.6 C 61 % 89 % 1017.4 hPa 8.6 mm 0.0 km/h NW 304 0 min 0.0 UV-I 0 W/m 14.3 C 16.1 C 0.0 km/h
18.09.2018 20:10 22.8 C 22.2 C 26.1 C 20.6 C 62 % 65 % 1017.3 hPa 0.2 mm 0.0 km/h W-NW 291 0 min 0.0 UV-I 0 W/m 15.3 C 22.2 C 0.0 km/h
18.09.2018 19:10 22.8 C 23.7 C 31.7 C 20.6 C 63 % 68 % 1015.1 hPa 0.0 mm 0.0 km/h O-NO 65 0 min 0.0 UV-I 11 W/m 17.4 C 23.7 C 0.0 km/h
18.09.2018 18:10 22.8 C 26.9 C 48.3 C 20.6 C 62 % 57 % 1014.6 hPa 0.0 mm 0.0 km/h O-NO 65 0 min 0.0 UV-I 30 W/m 17.6 C 26.9 C 0.0 km/h
18.09.2018 17:10 22.8 C 26.9 C 50.6 C 20.6 C 61 % 57 % 1014.8 hPa 0.0 mm 0.0 km/h N-NW 341 0 min 0.0 UV-I 65 W/m 17.6 C 26.9 C 0.0 km/h
18.09.2018 16:10 22.7 C 27.4 C 61.1 C 20.6 C 60 % 54 % 1014.8 hPa 0.0 mm 0.0 km/h O 83 60 min 1.0 UV-I 425 W/m 17.3 C 27.4 C 0.0 km/h
18.09.2018 15:10 22.6 C 28.2 C 60.0 C 20.6 C 60 % 51 % 1015.4 hPa 0.0 mm 0.0 km/h O-NO 74 60 min 2.0 UV-I 589 W/m 17.1 C 28.2 C 0.0 km/h
18.09.2018 14:10 22.7 C 27.8 C 69.4 C 20.6 C 60 % 52 % 1015.9 hPa 0.0 mm 0.0 km/h NO 39 50 min 2.7 UV-I 652 W/m 17.0 C 27.8 C 0.0 km/h
18.09.2018 13:10 22.7 C 26.8 C 69.4 C 20.6 C 60 % 53 % 1016.8 hPa 0.0 mm 0.0 km/h NW 305 50 min 1.8 UV-I 155 W/m 16.4 C 26.8 C 0.0 km/h
18.09.2018 12:10 22.4 C 26.1 C 60.0 C 20.6 C 59 % 60 % 1017.1 hPa 0.0 mm 0.0 km/h W 273 60 min 2.5 UV-I 629 W/m 17.7 C 26.1 C 0.0 km/h
18.09.2018 11:10 22.0 C 24.6 C 51.7 C 20.6 C 58 % 65 % 1017.1 hPa 0.0 mm 0.0 km/h N-NW 333 60 min 1.8 UV-I 584 W/m 17.6 C 24.6 C 0.0 km/h
18.09.2018 10:10 21.9 C 19.4 C 44.4 C 20.6 C 57 % 80 % 1017.1 hPa 0.0 mm 0.0 km/h O 89 60 min 0.9 UV-I 427 W/m 15.9 C 19.4 C 0.0 km/h
18.09.2018 09:10 21.7 C 15.0 C 20.6 C 20.6 C 57 % 91 % 1017.2 hPa 0.0 mm 0.0 km/h O 89 30 min 0.0 UV-I 253 W/m 13.5 C 15.0 C 0.0 km/h
18.09.2018 08:10 21.5 C 11.9 C 20.6 C 20.6 C 56 % 89 % 1017.1 hPa 0.0 mm 0.0 km/h O 89 0 min 0.0 UV-I 91 W/m 10.1 C 11.9 C 0.0 km/h
18.09.2018 07:10 21.7 C 10.1 C 20.6 C 20.6 C 57 % 91 % 1016.5 hPa 0.0 mm 0.0 km/h O 88 0 min 0.0 UV-I 0 W/m 8.7 C 10.1 C 0.0 km/h
18.09.2018 06:10 22.1 C 10.4 C 20.6 C 20.6 C 57 % 91 % 1016.5 hPa 0.0 mm 0.0 km/h O 89 0 min 0.0 UV-I 0 W/m 9.0 C 10.4 C 0.0 km/h
18.09.2018 05:10 22.0 C 11.1 C 20.6 C 20.6 C 58 % 91 % 1016.4 hPa 0.0 mm 0.0 km/h O 89 0 min 0.0 UV-I 0 W/m 9.7 C 11.1 C 0.0 km/h
18.09.2018 04:10 22.6 C 11.5 C 20.6 C 20.6 C 57 % 90 % 1016.0 hPa 0.0 mm 0.0 km/h O 89 0 min 0.0 UV-I 0 W/m 9.9 C 11.5 C 0.0 km/h
18.09.2018 03:10 22.2 C 11.8 C 20.6 C 20.6 C 58 % 90 % 1016.1 hPa 0.0 mm 0.0 km/h O 89 0 min 0.0 UV-I 0 W/m 10.2 C 11.8 C 0.0 km/h
18.09.2018 02:10 22.2 C 12.2 C 20.6 C 20.6 C 59 % 90 % 1016.1 hPa 0.0 mm 0.0 km/h O 88 0 min 0.0 UV-I 0 W/m 10.6 C 12.2 C 0.0 km/h
18.09.2018 01:10 22.2 C 12.8 C 21.1 C 20.6 C 59 % 89 % 1016.2 hPa 0.0 mm 0.0 km/h O 89 0 min 0.0 UV-I 0 W/m 11.0 C 12.8 C 0.0 km/h
18.09.2018 00:10 22.4 C 13.4 C 21.1 C 20.6 C 59 % 87 % 1016.2 hPa 0.0 mm 0.0 km/h O 89 0 min 0.0 UV-I 0 W/m 11.3 C 13.4 C 0.0 km/h
18.09.2018 00:00 22.4 C 13.5 C 21.1 C 20.6 C 59 % 87 % 1016.2 hPa 0.0 mm 0.0 km/h O 88 0 min 0.0 UV-I 0 W/m 11.4 C 13.5 C 0.0 km/h
_ Min-Zeit 08:20 07:30 01:20 00:00 06:50 14:20 17:50 - 00:00 - - - - - 07:30 07:30 00:00
Minimum _ 21.2 C 9.9 C 20.6 C 20.6 C 56 % 49 % 1014.4 hPa - 0.0 km/h - - - - - 8.5 C 9.9 C 0.0 km/h
_ Max-Zeit 18:20 14:20 13:50 00:00 19:10 03:40 22:50 20:20 20:20 - - 08:30 12:50 13:00 17:50 14:20 20:20
Maximum _ 23.1 C 28.3 C 71.1 C 20.6 C 63 % 91 % 1018.3 hPa 7.0 mm 3.9 km/h
N-NO
- - 10 min 3.0 UV-I 728 W/m 18.1 C 28.3 C 25.7 km/h
NW
Durchschnitt _ 22.4 C 18.7 C 35.4 C 20.6 C 59 % 76 % 1016.3 hPa #8.8 mm 0.0 km/h N-NO - #7:10 h 1.8 UV-I 333 W/m 13.8 C 18.7 C 0.3 km/h
Wetterstation CH-4312 Magden